createdAt,value
2019-03-19T06:54:10.822Z,35.30
2019-03-19T06:56:39.406Z,33.20
2019-03-19T06:59:13.907Z,32.70
2019-03-19T07:01:43.637Z,33.20
2019-03-19T07:04:12.613Z,34.20
2019-03-19T07:06:41.351Z,34.50
2019-03-19T07:09:23.157Z,34.60
2019-03-19T07:11:52.140Z,34.40
2019-03-19T07:14:23.374Z,35.80
2019-03-19T07:16:53.167Z,35.30
2019-03-19T07:19:22.081Z,34.20
2019-03-19T07:21:51.302Z,33.30
2019-03-19T07:24:20.501Z,33.00
2019-03-19T07:26:50.073Z,32.90
2019-03-19T07:29:19.386Z,32.80
2019-03-19T07:31:48.379Z,32.50
2019-03-19T07:34:17.167Z,32.80
2019-03-19T07:36:46.317Z,32.20
2019-03-19T07:39:17.135Z,32.30
2019-03-19T07:41:46.897Z,32.00
2019-03-19T07:44:15.573Z,32.30
2019-03-19T07:46:46.112Z,31.90
2019-03-19T07:49:16.566Z,31.80
2019-03-19T07:51:46.653Z,31.60
2019-03-19T07:54:16.540Z,31.30
2019-03-19T07:56:46.339Z,31.60
2019-03-19T07:59:16.233Z,31.50
2019-03-19T08:01:46.004Z,31.40
2019-03-19T08:04:16.226Z,31.40
2019-03-19T08:06:46.043Z,31.50
2019-03-19T08:09:15.802Z,31.50
2019-03-19T08:11:44.726Z,31.60
2019-03-19T08:14:13.516Z,31.40
2019-03-19T08:16:42.214Z,31.70
2019-03-19T08:19:10.987Z,31.80
2019-03-19T08:21:40.843Z,32.20
2019-03-19T08:24:10.524Z,32.50
2019-03-19T08:26:40.600Z,32.30
2019-03-19T08:29:10.854Z,32.20
2019-03-19T08:31:40.325Z,32.10
2019-03-19T08:34:09.583Z,32.20
2019-03-19T08:36:38.329Z,32.60
2019-03-19T08:39:09.256Z,32.70
2019-03-19T08:41:39.538Z,33.00
2019-03-19T08:44:09.633Z,32.60
2019-03-19T08:46:39.071Z,32.70
2019-03-19T08:49:08.948Z,32.40
2019-03-19T08:51:38.038Z,32.70
2019-03-19T08:54:08.511Z,32.40
2019-03-19T08:56:38.687Z,33.10
2019-03-19T08:59:07.657Z,33.00
2019-03-19T09:01:36.343Z,32.60
2019-03-19T09:04:15.514Z,32.80
2019-03-19T09:06:44.822Z,33.10
2019-03-19T09:09:14.860Z,32.80
2019-03-19T09:11:44.682Z,32.80
2019-03-19T09:14:14.502Z,33.00
2019-03-19T09:16:45.016Z,33.10
2019-03-19T09:19:14.348Z,32.80
2019-03-19T09:21:43.131Z,32.40
2019-03-19T09:24:13.358Z,32.60
2019-03-19T09:26:42.922Z,32.40
2019-03-19T09:29:17.197Z,32.30
2019-03-19T09:31:46.081Z,32.60
2019-03-19T09:34:16.474Z,34.20
2019-03-19T09:36:56.794Z,33.30
2019-03-19T09:39:17.026Z,33.50
2019-03-19T09:41:47.693Z,33.50
2019-03-19T09:44:16.709Z,33.30
2019-03-19T09:46:46.079Z,33.50
2019-03-19T09:49:15.888Z,33.60
2019-03-19T09:51:45.763Z,34.00
2019-03-19T09:54:15.513Z,33.50
2019-03-19T09:56:44.390Z,33.60
2019-03-19T09:59:13.855Z,34.00
2019-03-19T10:01:43.699Z,33.60
2019-03-19T10:04:13.491Z,33.50
2019-03-19T10:06:43.286Z,33.70
2019-03-19T10:09:13.180Z,33.70
2019-03-19T10:11:43.299Z,33.90
2019-03-19T10:14:13.196Z,34.40
2019-03-19T10:16:43.232Z,34.20
2019-03-19T10:19:11.970Z,34.30
2019-03-19T10:21:40.885Z,34.60
2019-03-19T10:24:09.856Z,34.70
2019-03-19T10:26:38.557Z,34.80
2019-03-19T10:29:07.918Z,34.80
2019-03-19T10:31:36.741Z,34.80
2019-03-19T10:34:06.404Z,34.40
2019-03-19T10:36:35.245Z,34.50
2019-03-19T10:39:08.741Z,34.60
2019-03-19T10:41:36.706Z,34.40
2019-03-19T10:44:06.022Z,34.50
2019-03-19T10:46:34.905Z,34.40
2019-03-19T10:49:04.389Z,34.40
2019-03-19T10:51:35.099Z,34.50
2019-03-19T10:54:03.383Z,34.70
2019-03-19T10:56:32.397Z,34.50
2019-03-19T10:59:01.933Z,34.60
2019-03-19T11:01:31.081Z,34.70
2019-03-19T11:04:00.213Z,34.70
2019-03-19T11:06:29.287Z,35.00
2019-03-19T13:53:12.386Z,35.50
2019-03-19T13:55:41.367Z,35.60
2019-03-19T13:58:10.725Z,35.60
2019-03-19T14:00:39.735Z,35.10
2019-03-19T14:03:08.878Z,36.20
2019-03-19T14:05:37.883Z,35.90
2019-03-19T14:08:07.193Z,35.50
2019-03-19T14:10:36.553Z,36.20
2019-03-19T14:13:05.434Z,36.20
2019-03-19T14:15:34.735Z,35.90
2019-03-19T14:18:03.981Z,35.40
2019-03-19T14:20:33.360Z,35.40
2019-03-19T14:23:02.562Z,35.50
2019-03-19T14:25:31.337Z,35.90
2019-03-19T14:28:00.145Z,36.30
2019-03-19T14:30:29.398Z,35.90
2019-03-19T14:32:58.197Z,36.10
2019-03-19T14:35:36.918Z,35.70
2019-03-19T14:37:57.636Z,35.80
2019-03-19T14:40:27.161Z,36.10
2019-03-19T14:42:59.130Z,35.70
2019-03-19T14:45:27.289Z,35.40
2019-03-19T14:47:56.362Z,36.50
2019-03-19T14:50:30.604Z,36.30
2019-03-19T14:53:00.572Z,36.30
2019-03-19T14:55:29.436Z,36.40
2019-03-19T14:57:58.340Z,36.10
2019-03-19T15:00:27.261Z,37.00
2019-03-19T15:02:56.187Z,37.30
2019-03-19T15:05:24.915Z,36.30
2019-03-19T15:07:54.180Z,36.10
2019-03-19T15:10:24.486Z,36.00
2019-03-19T15:12:53.888Z,35.80
2019-03-19T15:15:23.545Z,36.50
2019-03-19T15:17:52.784Z,36.50
2019-03-19T15:20:24.078Z,36.80
2019-03-19T15:22:53.311Z,36.70
2019-03-19T15:25:22.270Z,36.90
2019-03-19T15:27:51.073Z,36.20
2019-03-19T15:30:20.889Z,36.10
2019-03-19T15:32:49.575Z,36.60
2019-03-19T15:35:18.370Z,36.60
2019-03-19T15:37:47.101Z,35.80
2019-03-19T15:40:19.114Z,36.40
2019-03-19T15:42:48.191Z,36.30
2019-03-19T15:45:19.289Z,36.00
2019-03-19T15:47:48.239Z,37.20
2019-03-19T15:50:18.037Z,36.50
2019-03-19T15:52:47.171Z,35.60
2019-03-19T15:55:16.617Z,36.30
2019-03-19T15:57:45.432Z,37.20
2019-03-19T16:00:16.310Z,36.70
2019-03-19T16:02:45.606Z,37.10
2019-03-19T16:05:15.111Z,37.20
2019-03-19T16:07:43.933Z,36.00
2019-03-19T16:10:14.932Z,36.50
2019-03-19T16:12:43.791Z,36.10
2019-03-19T16:15:14.963Z,36.20
2019-03-19T16:17:44.168Z,36.10
2019-03-19T16:20:14.866Z,36.10
2019-03-19T16:22:43.741Z,36.30
2019-03-19T16:25:13.101Z,36.40
2019-03-19T16:27:41.974Z,36.10
2019-03-19T16:30:13.310Z,36.60
2019-03-19T16:32:42.147Z,36.70
2019-03-19T16:35:11.839Z,36.50
2019-03-19T16:37:40.995Z,36.00
2019-03-19T16:40:13.188Z,36.30
2019-03-19T16:42:42.332Z,35.90
